Time;durP1;ratioP1;P1;durP2;ratioP2;P2;SDS_P1;SDS_P2;PMS_P1;PMS_P2;Temp;Humidity;BMP_temperature;BMP_pressure;BME280_temperature;BME280_humidity;BME280_pressure;Samples;Min_cycle;Max_cycle;Signal;HPM_P1;HPM_P2
2023/04/17 00:00:14;;;;;;;394.80;371.30;;;;;;;;;;5014194;28;20185;-73
2023/04/17 00:02:40;;;;;;;454.10;425.50;;;8.30;60.60;;;;;;5014119;28;20216;-72
2023/04/17 00:05:09;;;;;;;295.17;271.87;;;8.50;59.70;;;;;;5014391;28;20498;-72
2023/04/17 00:07:38;;;;;;;513.13;477.40;;;8.50;59.80;;;;;;5014004;28;20597;-71
2023/04/17 00:10:08;;;;;;;456.17;424.53;;;8.40;57.50;;;;;;5013985;28;20935;-71
2023/04/17 00:12:34;;;;;;;322.10;297.13;;;8.20;58.50;;;;;;5012364;28;20505;-70
2023/04/17 00:14:59;;;;;;;402.43;375.37;;;8.20;60.50;;;;;;5012453;28;20984;-70
2023/04/17 00:17:25;;;;;;;223.83;206.53;;;8.30;60.70;;;;;;5013920;28;20450;-70
2023/04/17 00:19:51;;;;;;;318.40;294.73;;;8.40;60.70;;;;;;5012406;28;20186;-71
2023/04/17 00:22:16;;;;;;;258.50;237.10;;;8.30;58.60;;;;;;5013492;28;20181;-71
2023/04/17 00:24:42;;;;;;;364.93;338.77;;;8.30;59.40;;;;;;5013650;28;20219;-70
2023/04/17 00:27:07;;;;;;;231.77;212.33;;;8.30;59.30;;;;;;5013645;28;20188;-70
2023/04/17 00:29:33;;;;;;;239.87;222.57;;;8.30;60.70;;;;;;5014063;28;20198;-71
2023/04/17 00:31:59;;;;;;;329.90;305.87;;;8.30;60.70;;;;;;5013258;28;20185;-71
2023/04/17 00:34:24;;;;;;;258.47;240.10;;;8.30;60.70;;;;;;5013462;28;20287;-71
2023/04/17 00:36:50;;;;;;;260.20;240.17;;;8.30;59.30;;;;;;5013751;28;20247;-71
2023/04/17 00:39:15;;;;;;;248.77;229.77;;;8.30;60.00;;;;;;5013821;28;20227;-72
2023/04/17 00:41:41;;;;;;;284.53;262.67;;;8.20;60.00;;;;;;5013439;28;20554;-72
2023/04/17 00:44:06;;;;;;;268.80;248.67;;;8.30;59.80;;;;;;5013386;28;20292;-71
2023/04/17 00:46:32;;;;;;;520.37;483.10;;;;;;;;;;5013925;28;20713;-72
2023/04/17 00:49:00;;;;;;;472.87;441.63;;;;;;;;;;5013735;28;20177;-72
2023/04/17 00:51:26;;;;;;;307.90;286.13;;;;;;;;;;5013349;28;20952;-71
2023/04/17 00:53:52;;;;;;;355.90;331.77;;;;;;;;;;5013644;28;20409;-72
2023/04/17 00:56:18;;;;;;;272.73;251.27;;;;;;;;;;5013116;28;20430;-72
2023/04/17 00:58:45;;;;;;;408.30;384.30;;;;;;;;;;5012025;28;20461;-71
2023/04/17 01:01:11;;;;;;;396.23;373.07;;;;;;;;;;5013136;28;20898;-72
2023/04/17 01:03:37;;;;;;;307.00;284.00;;;;;;;;;;5011586;28;20558;-72
2023/04/17 01:06:03;;;;;;;531.63;494.40;;;;;;;;;;5012984;28;20574;-72
2023/04/17 01:08:33;;;;;;;413.13;385.60;;;;;;;;;;5012835;28;20452;-72
2023/04/17 01:10:59;;;;;;;631.37;589.50;;;;;;;;;;5012899;28;20413;-72
2023/04/17 01:13:25;;;;;;;437.63;406.93;;;;;;;;;;5012367;28;20959;-72
2023/04/17 01:15:51;;;;;;;347.77;325.63;;;;;;;;;;5013037;28;20436;-72
2023/04/17 01:18:17;;;;;;;608.63;566.27;;;;;;;;;;5013016;28;20916;-72
2023/04/17 01:20:43;;;;;;;260.87;242.17;;;;;;;;;;5011678;28;20427;-72
2023/04/17 01:23:09;;;;;;;317.50;293.20;;;;;;;;;;5012461;28;20417;-72
2023/04/17 01:25:35;;;;;;;406.53;378.10;;;;;;;;;;5012006;28;20469;-72
2023/04/17 01:28:01;;;;;;;537.13;501.27;;;;;;;;;;5011607;28;20537;-72
2023/04/17 01:30:27;;;;;;;160.03;145.23;;;;;;;;;;5012701;28;20447;-72
2023/04/17 01:32:54;;;;;;;285.13;265.07;;;;;;;;;;5012156;28;20917;-73
2023/04/17 01:35:20;;;;;;;363.80;339.33;;;;;;;;;;5012496;28;20456;-73
2023/04/17 01:37:46;;;;;;;480.13;448.30;;;;;;;;;;5012571;28;20906;-71
2023/04/17 01:40:12;;;;;;;359.07;333.57;;;;;;;;;;5012436;28;20427;-71
2023/04/17 01:42:38;;;;;;;316.90;294.03;;;;;;;;;;5012183;28;20502;-72
2023/04/17 01:45:05;;;;;;;275.17;254.40;;;;;;;;;;5012092;28;20806;-72
2023/04/17 01:47:31;;;;;;;152.67;138.63;;;;;;;;;;5010988;28;20429;-72
2023/04/17 01:49:57;;;;;;;530.90;494.03;;;;;;;;;;5010997;28;20799;-72
2023/04/17 01:52:22;;;;;;;450.70;418.50;;;;;;;;;;5011979;28;20507;-72
2023/04/17 01:54:48;;;;;;;283.37;261.77;;;;;;;;;;5012208;28;20476;-71
2023/04/17 01:57:14;;;;;;;477.43;444.70;;;;;;;;;;5012016;28;20422;-71
2023/04/17 01:59:40;;;;;;;473.83;442.10;;;;;;;;;;5010905;28;20503;-71
2023/04/17 02:02:06;;;;;;;255.50;236.00;;;;;;;;;;5011504;28;20440;-71
2023/04/17 02:04:32;;;;;;;403.17;375.50;;;;;;;;;;5012043;28;20556;-70
2023/04/17 02:06:58;;;;;;;473.70;440.77;;;;;;;;;;5012060;28;20424;-71
2023/04/17 02:09:24;;;;;;;535.50;499.70;;;;;;;;;;5011912;28;20990;-71
2023/04/17 02:11:50;;;;;;;371.03;343.83;;;;;;;;;;5011769;28;20433;-71
2023/04/17 02:14:17;;;;;;;562.20;523.70;;;;;;;;;;5012001;28;20437;-71
2023/04/17 02:16:44;;;;;;;475.73;442.70;;;;;;;;;;5012022;28;20512;-71
2023/04/17 02:19:11;;;;;;;496.80;461.87;;;;;;;;;;5012020;28;20445;-71
2023/04/17 02:21:37;;;;;;;389.77;362.47;;;;;;;;;;5011533;28;20442;-71
2023/04/17 02:24:03;;;;;;;452.03;419.43;;;;;;;;;;5011751;28;20464;-71
2023/04/17 02:26:29;;;;;;;390.47;363.53;;;;;;;;;;5012020;28;20409;-71
2023/04/17 02:28:55;;;;;;;512.90;476.53;;;;;;;;;;5011924;28;20413;-71
2023/04/17 02:31:20;;;;;;;317.40;292.83;;;8.30;59.60;;;;;;5011887;28;20968;-71
2023/04/17 02:33:46;;;;;;;462.17;429.00;;;7.90;61.40;;;;;;5011492;28;20527;-71
2023/04/17 02:36:11;;;;;;;342.33;319.60;;;7.90;61.70;;;;;;5011635;28;20293;-72
2023/04/17 02:38:38;;;;;;;492.50;458.57;;;;;;;;;;5014207;28;20181;-70
2023/04/17 02:41:04;;;;;;;351.53;325.83;;;;;;;;;;5015831;28;20181;-70
2023/04/17 02:43:30;;;;;;;318.03;295.50;;;;;;;;;;5015500;28;20416;-71
2023/04/17 02:45:56;;;;;;;278.63;259.07;;;;;;;;;;5015740;28;20820;-71
2023/04/17 02:48:22;;;;;;;368.37;345.10;;;;;;;;;;5014461;28;20418;-71
2023/04/17 02:50:48;;;;;;;285.27;263.07;;;;;;;;;;5015741;28;20921;-70
2023/04/17 02:53:14;;;;;;;414.87;384.97;;;;;;;;;;5015526;28;20413;-71
2023/04/17 02:55:40;;;;;;;459.17;431.53;;;;;;;;;;5015823;28;20464;-71
2023/04/17 02:58:06;;;;;;;254.80;236.37;;;;;;;;;;5015471;28;20431;-71
2023/04/17 03:00:32;;;;;;;593.20;552.40;;;;;;;;;;5015747;28;20420;-71
2023/04/17 03:02:58;;;;;;;209.67;191.63;;;;;;;;;;5015508;28;20421;-71
2023/04/17 03:05:24;;;;;;;477.17;443.60;;;;;;;;;;5015428;28;20462;-71
2023/04/17 03:07:50;;;;;;;399.47;372.17;;;;;;;;;;5014342;28;20486;-71
2023/04/17 03:10:16;;;;;;;457.93;425.63;;;;;;;;;;5014090;28;20417;-71
2023/04/17 03:12:42;;;;;;;269.77;250.77;;;;;;;;;;5015238;28;20475;-71
2023/04/17 03:15:09;;;;;;;424.33;393.20;;;;;;;;;;5015170;28;20481;-71
2023/04/17 03:17:34;;;;;;;229.90;211.60;;;;;;;;;;5015224;28;20460;-71
2023/04/17 03:20:01;;;;;;;376.13;349.27;;;;;;;;;;5015070;28;20414;-71
2023/04/17 03:22:27;;;;;;;478.13;446.17;;;;;;;;;;5014837;28;20421;-71
2023/04/17 03:24:53;;;;;;;179.43;163.30;;;;;;;;;;5013630;28;20471;-71
2023/04/17 03:27:23;;;;;;;447.80;416.63;;;;;;;;;;5015047;28;20416;-71
2023/04/17 03:29:50;;;;;;;420.80;391.93;;;;;;;;;;5015429;28;20471;-72
2023/04/17 03:32:16;;;;;;;236.90;218.57;;;;;;;;;;5013818;28;20421;-72
2023/04/17 03:34:42;;;;;;;420.33;392.10;;;;;;;;;;5015017;28;20961;-71
2023/04/17 03:37:08;;;;;;;356.07;328.43;;;;;;;;;;5014699;28;20417;-72
2023/04/17 03:39:34;;;;;;;259.30;239.30;;;;;;;;;;5013336;28;20428;-71
2023/04/17 03:42:00;;;;;;;505.20;471.33;;;;;;;;;;5014707;28;20447;-71
2023/04/17 03:44:26;;;;;;;340.97;317.03;;;;;;;;;;5014835;28;20499;-71
2023/04/17 03:46:52;;;;;;;483.37;446.27;;;;;;;;;;5013349;28;20420;-72
2023/04/17 03:49:18;;;;;;;308.23;286.27;;;;;;;;;;5012776;28;20501;-72
2023/04/17 03:51:44;;;;;;;352.93;328.43;;;;;;;;;;5013053;28;20428;-71
2023/04/17 03:54:10;;;;;;;313.43;290.33;;;;;;;;;;5013118;28;20431;-71
2023/04/17 03:56:36;;;;;;;417.47;389.73;;;;;;;;;;5012912;28;20449;-71
2023/04/17 03:59:03;;;;;;;158.90;145.23;;;;;;;;;;5014397;28;20417;-71
2023/04/17 04:01:29;;;;;;;452.50;419.10;;;;;;;;;;5012801;28;20801;-72
2023/04/17 04:03:55;;;;;;;183.97;167.73;;;;;;;;;;5013867;28;20455;-72
2023/04/17 04:06:21;;;;;;;458.10;428.37;;;;;;;;;;5014446;28;20428;-72
2023/04/17 04:08:48;;;;;;;225.77;207.57;;;;;;;;;;5013874;28;20523;-72
2023/04/17 04:11:14;;;;;;;342.27;317.80;;;;;;;;;;5014153;28;20412;-71
2023/04/17 04:13:40;;;;;;;368.20;343.73;;;;;;;;;;5013792;28;20415;-72
2023/04/17 04:16:06;;;;;;;431.83;403.93;;;;;;;;;;5014475;28;20840;-71
2023/04/17 04:18:32;;;;;;;256.20;236.10;;;;;;;;;;5013946;28;20427;-71
2023/04/17 04:20:58;;;;;;;319.57;295.60;;;;;;;;;;5012571;28;20424;-71
2023/04/17 04:23:24;;;;;;;341.87;318.10;;;;;;;;;;5013609;28;20440;-71
2023/04/17 04:25:50;;;;;;;377.00;349.23;;;;;;;;;;5013874;28;20437;-71
2023/04/17 04:28:16;;;;;;;512.17;476.43;;;;;;;;;;5013778;28;20414;-71
2023/04/17 04:30:49;;;;;;;440.50;409.90;;;;;;;;;;5013681;28;20409;-71
2023/04/17 04:33:15;;;;;;;466.53;433.47;;;;;;;;;;5013268;28;20498;-71
2023/04/17 04:35:40;;;;;;;306.70;282.90;;;;;;;;;;5049049;22;20490;-70
2023/04/17 04:38:06;;;;;;;589.90;548.50;;;;;;;;;;5033618;28;21029;-70
2023/04/17 04:40:36;;;;;;;349.33;323.17;;;;;;;;;;5033737;28;20407;-67
2023/04/17 04:43:03;;;;;;;394.57;368.87;;;;;;;;;;5033405;28;20409;-67
2023/04/17 04:45:29;;;;;;;401.10;371.93;;;;;;;;;;5033378;28;20466;-69
2023/04/17 04:47:55;;;;;;;517.03;485.23;;;;;;;;;;5033037;28;20427;-70
2023/04/17 04:50:21;;;;;;;217.83;199.43;;;;;;;;;;5032281;28;20465;-69
2023/04/17 04:52:47;;;;;;;143.93;130.27;;;;;;;;;;5033146;28;20416;-68
2023/04/17 04:55:13;;;;;;;365.23;339.13;;;;;;;;;;5031442;28;20439;-69
2023/04/17 04:57:39;;;;;;;164.13;149.13;;;;;;;;;;5033004;28;20484;-68
2023/04/17 05:00:07;;;;;;;354.83;330.17;;;;;;;;;;5032218;28;20508;-69
2023/04/17 05:02:33;;;;;;;524.30;489.07;;;;;;;;;;5032700;28;20498;-69
2023/04/17 05:04:59;;;;;;;270.73;251.90;;;;;;;;;;5032830;28;20469;-69
2023/04/17 05:07:26;;;;;;;198.33;182.43;;;;;;;;;;5033297;28;20815;-69
2023/04/17 05:09:52;;;;;;;491.53;456.67;;;;;;;;;;5031320;28;20803;-69
2023/04/17 05:12:17;;;;;;;439.37;407.40;;;;;;;;;;5032500;28;20439;-68
2023/04/17 05:14:43;;;;;;;407.63;378.23;;;;;;;;;;5032718;28;20445;-68
2023/04/17 05:17:09;;;;;;;262.23;243.27;;;;;;;;;;5032913;28;20446;-68
2023/04/17 05:19:35;;;;;;;335.07;313.43;;;;;;;;;;5031355;28;20428;-68
2023/04/17 05:22:01;;;;;;;392.00;366.53;;;;;;;;;;5032473;28;20412;-68
2023/04/17 05:24:27;;;;;;;337.27;313.47;;;;;;;;;;5030949;28;20545;-69
2023/04/17 05:26:53;;;;;;;174.57;159.57;;;;;;;;;;5032154;28;20910;-69
2023/04/17 05:29:19;;;;;;;456.27;423.67;;;;;;;;;;5032612;28;20413;-68
2023/04/17 05:31:45;;;;;;;514.13;477.60;;;;;;;;;;5032250;28;20420;-68
2023/04/17 05:34:11;;;;;;;354.37;330.17;;;;;;;;;;5032577;28;20463;-67
2023/04/17 05:36:37;;;;;;;448.53;416.43;;;;;;;;;;5030936;28;20494;-68
2023/04/17 05:39:03;;;;;;;447.33;416.13;;;;;;;;;;5032355;28;20415;-71
2023/04/17 05:41:30;;;;;;;506.43;474.37;;;;;;;;;;5032110;28;20416;-68
2023/04/17 05:43:56;;;;;;;343.23;318.67;;;;;;;;;;5032086;28;20455;-67
2023/04/17 05:46:22;;;;;;;497.03;462.93;;;;;;;;;;5030640;28;20859;-68
2023/04/17 05:48:48;;;;;;;305.47;281.90;;;;;;;;;;5032477;28;20426;-66
2023/04/17 05:51:14;;;;;;;210.07;192.73;;;;;;;;;;5032190;28;20469;-68
2023/04/17 05:53:40;;;;;;;273.40;253.17;;;;;;;;;;5032033;28;20886;-68
2023/04/17 05:56:06;;;;;;;438.83;409.00;;;;;;;;;;5032039;28;20956;-68
2023/04/17 05:58:32;;;;;;;481.67;444.70;;;;;;;;;;5031434;28;20421;-68
2023/04/17 06:00:58;;;;;;;294.87;275.03;;;;;;;;;;5031882;28;20430;-68
2023/04/17 06:03:25;;;;;;;407.13;380.53;;;;;;;;;;5031690;28;20405;-68
2023/04/17 06:05:51;;;;;;;517.30;480.23;;;;;;;;;;5032095;28;20482;-68
2023/04/17 06:08:17;;;;;;;344.37;317.97;;;;;;;;;;5030578;28;20933;-67
2023/04/17 06:10:44;;;;;;;301.03;277.13;;;;;;;;;;5032561;28;20496;-67
2023/04/17 06:13:10;;;;;;;234.43;216.00;;;;;;;;;;5031163;28;20443;-67
2023/04/17 06:15:36;;;;;;;350.07;326.33;;;;;;;;;;5033002;28;20827;-68
2023/04/17 06:18:02;;;;;;;463.93;430.77;;;;;;;;;;5031848;28;20462;-68
2023/04/17 06:20:28;;;;;;;540.80;504.83;;;;;;;;;;5032812;28;20415;-69
2023/04/17 06:22:55;;;;;;;353.17;328.23;;;;;;;;;;5032912;28;20477;-67
2023/04/17 06:25:21;;;;;;;383.77;355.63;;;;;;;;;;5032751;28;20970;-68
2023/04/17 06:27:47;;;;;;;408.17;380.70;;;;;;;;;;5032934;28;20889;-69
2023/04/17 06:30:13;;;;;;;333.63;309.83;;;;;;;;;;5031119;28;20462;-69
2023/04/17 06:32:42;;;;;;;432.97;403.13;;;;;;;;;;5032535;28;20478;-68
2023/04/17 06:35:10;;;;;;;493.90;460.27;;;;;;;;;;5031970;28;20580;-69
2023/04/17 06:37:36;;;;;;;258.40;237.70;;;;;;;;;;5030952;28;20523;-68
2023/04/17 06:40:02;;;;;;;219.43;200.77;;;;;;;;;;5032356;28;20575;-69
2023/04/17 06:42:28;;;;;;;462.77;429.90;;;;;;;;;;5031222;28;20421;-69
2023/04/17 06:44:55;;;;;;;374.77;346.50;;;;;;;;;;5032272;28;20473;-68
2023/04/17 06:47:21;;;;;;;393.37;365.93;;;;;;;;;;5027923;28;20420;-69
2023/04/17 06:49:47;;;;;;;298.80;276.80;;;;;;;;;;5029064;28;20432;-70
2023/04/17 06:52:13;;;;;;;402.50;372.10;;;;;;;;;;5027648;28;20491;-70
2023/04/17 06:54:39;;;;;;;532.67;496.53;;;;;;;;;;5026046;28;20739;-69
2023/04/17 06:57:08;;;;;;;317.57;296.43;;;;;;;;;;5030326;28;20508;-71
2023/04/17 06:59:34;;;;;;;211.30;194.90;;;;;;;;;;5034149;28;20535;-70
2023/04/17 07:02:01;;;;;;;405.60;378.20;;;;;;;;;;5027764;28;20502;-69
2023/04/17 07:04:30;;;;;;;234.97;216.80;;;;;;;;;;5031540;28;20463;-71
2023/04/17 07:06:56;;;;;;;490.87;455.73;;;;;;;;;;5036924;28;20807;-70
2023/04/17 07:09:23;;;;;;;227.43;210.40;;;;;;;;;;5038154;28;20478;-70
2023/04/17 07:11:49;;;;;;;287.90;265.57;;;;;;;;;;5047872;28;20428;-71
2023/04/17 07:14:15;;;;;;;151.27;138.17;;;;;;;;;;5029381;28;20522;-70
2023/04/17 07:16:41;;;;;;;369.87;346.23;;;;;;;;;;5028202;28;20864;-69
2023/04/17 07:19:07;;;;;;;372.93;348.27;;;;;;;;;;5028669;28;20487;-72
2023/04/17 07:21:34;;;;;;;474.70;441.93;;;;;;;;;;5028647;28;20422;-71
2023/04/17 07:24:00;;;;;;;482.13;449.63;;;;;;;;;;5030372;28;20844;-70
2023/04/17 07:26:26;;;;;;;393.17;369.40;;;;;;;;;;5036581;28;20426;-67
2023/04/17 07:28:52;;;;;;;279.23;257.80;;;;;;;;;;5036422;28;20414;-68
2023/04/17 07:31:18;;;;;;;409.17;380.17;;;;;;;;;;5036912;28;20482;-68
2023/04/17 07:33:44;;;;;;;350.23;324.93;;;;;;;;;;5035304;28;20409;-68
2023/04/17 07:36:10;;;;;;;406.73;382.80;;;;;;;;;;5034515;28;20456;-69
2023/04/17 07:38:37;;;;;;;172.73;158.70;;;;;;;;;;5035359;28;20490;-68
2023/04/17 07:41:03;;;;;;;508.63;473.57;;;;;;;;;;5034442;28;20446;-69
2023/04/17 07:43:29;;;;;;;485.23;451.77;;;;;;;;;;5033252;28;20852;-68
2023/04/17 07:45:55;;;;;;;325.70;302.27;;;;;;;;;;5035295;28;20430;-68
2023/04/17 07:48:22;;;;;;;285.83;267.07;;;;;;;;;;5036321;28;20418;-66
2023/04/17 07:50:48;;;;;;;438.17;407.07;;;;;;;;;;5034870;28;20422;-69
2023/04/17 07:53:14;;;;;;;296.30;275.73;;;;;;;;;;5023237;28;20418;-68
2023/04/17 07:55:40;;;;;;;655.03;606.80;;;;;;;;;;5014414;28;20817;-67
2023/04/17 07:58:10;;;;;;;224.07;207.90;;;;;;;;;;5015450;28;20413;-70
2023/04/17 08:00:36;;;;;;;183.90;169.30;;;;;;;;;;5032366;28;20436;-69
2023/04/17 08:03:02;;;;;;;302.60;282.53;;;;;;;;;;5032662;28;20424;-68
2023/04/17 08:05:28;;;;;;;323.17;302.27;;;;;;;;;;5034682;28;20832;-68
2023/04/17 08:07:54;;;;;;;142.00;129.33;;;;;;;;;;5034499;28;20429;-68
2023/04/17 08:10:20;;;;;;;179.80;165.13;;;;;;;;;;5031282;28;20469;-69
2023/04/17 08:12:47;;;;;;;321.43;299.17;;;;;;;;;;5033637;28;20456;-69
2023/04/17 08:15:12;;;;;;;313.10;290.97;;;;;;;;;;5034796;28;20437;-68
2023/04/17 08:17:38;;;;;;;159.33;146.70;;;;;;;;;;5033621;28;20428;-68
2023/04/17 08:20:10;;;;;;;445.77;419.07;;;;;;;;;;5033291;28;20861;-68
2023/04/17 08:22:42;;;;;;;490.07;456.77;;;;;;;;;;5033471;28;20435;-68
2023/04/17 08:25:09;;;;;;;243.40;226.47;;;;;;;;;;5034256;28;20559;-69
2023/04/17 08:27:36;;;;;;;421.00;390.67;;;;;;;;;;5024110;28;20491;-68
2023/04/17 08:30:03;;;;;;;391.57;363.50;;;;;;;;;;5033596;28;20410;-68
2023/04/17 08:32:29;;;;;;;246.57;228.67;;;;;;;;;;5031770;28;20430;-68
2023/04/17 08:34:57;;;;;;;276.07;254.40;;;;;;;;;;5032622;28;20459;-68
2023/04/17 08:37:23;;;;;;;364.93;340.27;;;;;;;;;;5033910;28;20469;-68
2023/04/17 08:39:51;;;;;;;331.73;307.67;;;;;;;;;;5032991;28;20505;-68
2023/04/17 08:42:17;;;;;;;398.57;374.00;;;;;;;;;;5031823;28;20425;-68
2023/04/17 08:44:43;;;;;;;267.30;249.27;;;;;;;;;;5033566;28;20480;-68
2023/04/17 08:47:09;;;;;;;471.37;438.80;;;;;;;;;;5031401;28;20502;-68
2023/04/17 08:49:35;;;;;;;401.67;372.70;;;;;;;;;;5032825;28;20432;-69
2023/04/17 08:52:03;;;;;;;177.07;162.67;;;;;;;;;;5031972;28;20425;-69
2023/04/17 08:54:29;;;;;;;378.10;352.93;;;;;;;;;;5032837;28;20428;-70
2023/04/17 08:56:56;;;;;;;483.27;450.43;;;;;;;;;;5031436;28;20452;-69
2023/04/17 08:59:22;;;;;;;393.60;367.00;;;;;;;;;;5033936;28;20733;-70
2023/04/17 09:02:02;;;;;;;360.13;336.47;;;;;;;;;;5031806;28;20444;-69
2023/04/17 09:04:54;;;;;;;426.60;396.13;;;;;;;;;;5032019;28;20476;-69
2023/04/17 09:07:28;;;;;;;266.93;247.47;;;;;;;;;;5031426;28;20902;-69
2023/04/17 09:09:55;;;;;;;355.83;329.80;;;;;;;;;;5032987;28;20433;-69
2023/04/17 09:12:25;;;;;;;309.73;287.87;;;;;;;;;;5031178;28;20567;-68
2023/04/17 09:14:51;;;;;;;355.10;328.63;;;;;;;;;;5033718;28;20858;-68
2023/04/17 09:17:18;;;;;;;364.23;339.60;;;;;;;;;;5033344;28;20451;-68
2023/04/17 09:20:06;;;;;;;212.57;195.87;;;;;;;;;;5030407;28;20517;-68
2023/04/17 09:22:32;;;;;;;291.37;271.57;;;;;;;;;;5011121;28;20422;-71
2023/04/17 09:24:58;;;;;;;388.67;362.07;;;;;;;;;;5019860;28;20501;-69
2023/04/17 09:27:25;;;;;;;373.33;347.50;;;;;;;;;;5030798;28;20465;-69
2023/04/17 09:30:04;;;;;;;301.10;280.97;;;;;;;;;;5033118;28;20415;-69
2023/04/17 09:32:31;;;;;;;497.67;465.07;;;;;;;;;;5032682;28;20492;-69
2023/04/17 09:34:58;;;;;;;478.80;447.27;;;;;;;;;;5030221;28;20465;-68
2023/04/17 09:37:25;;;;;;;444.93;416.23;;;;;;;;;;5031869;28;20418;-70
2023/04/17 09:40:06;;;;;;;301.80;280.73;;;;;;;;;;5025461;28;20452;-68
2023/04/17 09:42:32;;;;;;;314.93;291.53;;;;;;;;;;5030458;28;20417;-68
2023/04/17 09:45:17;;;;;;;198.10;182.40;;;;;;;;;;5032660;28;20527;-69
2023/04/17 09:47:44;;;;;;;512.40;479.43;;;;;;;;;;5031279;28;20429;-69
2023/04/17 09:50:10;;;;;;;500.77;465.90;;;;;;;;;;5033170;28;20414;-68
2023/04/17 09:52:40;;;;;;;406.07;379.67;;;;;;;;;;5032458;28;20426;-68
2023/04/17 09:55:09;;;;;;;400.60;372.67;;;;;;;;;;5021414;28;20439;-69
2023/04/17 09:57:37;;;;;;;401.07;373.77;;;;;;;;;;5033387;28;20428;-68
2023/04/17 10:00:05;;;;;;;282.17;261.87;;;;;;;;;;5016380;28;20450;-68
2023/04/17 10:02:32;;;;;;;607.17;566.07;;;;;;;;;;5012796;28;20411;-68
2023/04/17 10:04:58;;;;;;;381.50;353.77;;;;;;;;;;5012724;28;20477;-69
2023/04/17 10:07:25;;;;;;;525.43;491.97;;;;;;;;;;5012281;28;20555;-69
2023/04/17 10:09:50;;;;;;;301.60;281.97;;;;;;;;;;5011122;28;20423;-69
2023/04/17 10:12:18;;;;;;;447.97;419.63;;;;;;;;;;5021958;28;20423;-69
2023/04/17 10:14:47;;;;;;;508.43;470.37;;;;;;;;;;5018423;28;20931;-68
2023/04/17 10:17:27;;;;;;;225.43;209.57;;;;;;;;;;5032600;28;20414;-68
2023/04/17 10:19:53;;;;;;;225.70;208.73;;;;;;;;;;5031144;28;20464;-68
2023/04/17 10:22:19;;;;;;;291.50;270.97;;;;;;;;;;5032092;28;20417;-68
2023/04/17 10:24:52;;;;;;;295.90;276.07;;;;;;;;;;5031611;28;20493;-69
2023/04/17 10:27:25;;;;;;;356.13;333.10;;;;;;;;;;5032180;28;20414;-69
2023/04/17 10:29:54;;;;;;;390.70;362.97;;;;;;;;;;5032775;28;20433;-69
2023/04/17 10:32:24;;;;;;;457.97;429.20;;;;;;;;;;5031490;28;20410;-69
2023/04/17 10:34:50;;;;;;;351.17;325.93;;;;;;;;;;5048065;23;20449;-71
2023/04/17 10:37:16;;;;;;;244.00;224.43;;;;;;;;;;5031467;28;20430;-69
2023/04/17 10:39:55;;;;;;;532.93;498.83;;;;;;;;;;5014044;28;20781;-70
2023/04/17 10:42:22;;;;;;;482.20;450.83;;;;;;;;;;5014017;28;20411;-70
2023/04/17 10:44:48;;;;;;;363.87;338.87;;;;;;;;;;5031883;28;20508;-69
2023/04/17 10:47:15;;;;;;;312.07;291.50;;;;;;;;;;5031738;28;20418;-70
2023/04/17 10:49:47;;;;;;;453.23;423.67;;;;;;;;;;5032255;28;20406;-69
2023/04/17 10:52:34;;;;;;;263.87;244.90;;;;;;;;;;5031688;28;20887;-69
2023/04/17 10:55:16;;;;;;;448.30;420.40;;;;;;;;;;5031772;28;20778;-69
2023/04/17 10:57:52;;;;;;;565.37;527.67;;;;;;;;;;5032127;28;20417;-70
2023/04/17 11:00:19;;;;;;;213.83;196.40;;;;;;;;;;5036576;28;20508;-70
2023/04/17 11:02:46;;;;;;;395.03;366.93;;;;;;;;;;5035733;28;20420;-68
2023/04/17 11:05:12;;;;;;;650.27;602.27;;;;;;;;;;5036266;28;20551;-71
2023/04/17 11:07:40;;;;;;;369.57;345.87;;;7.90;61.50;;;;;;5034428;28;20523;-69
2023/04/17 11:10:06;;;;;;;573.20;536.07;;;;;;;;;;5034479;28;20836;-70
2023/04/17 11:12:32;;;;;;;326.70;306.00;;;;;;;;;;5035119;28;20411;-70
2023/04/17 11:15:02;;;;;;;623.00;578.13;;;;;;;;;;5035960;28;20923;-70
2023/04/17 11:17:28;;;;;;;308.07;286.87;;;13.70;19.00;;;;;;5035553;28;20416;-70
2023/04/17 11:19:54;;;;;;;448.73;421.10;;;;;;;;;;5036708;28;20417;-70
2023/04/17 11:22:20;;;;;;;493.40;461.07;;;;;;;;;;5034048;28;20190;-70
2023/04/17 11:24:50;;;;;;;422.50;395.77;;;;;;;;;;5035429;28;20859;-71
2023/04/17 11:27:16;;;;;;;308.03;286.77;;;;;;;;;;5035328;28;20410;-70
2023/04/17 11:29:42;;;;;;;479.97;448.13;;;;;;;;;;5035294;28;20421;-69
2023/04/17 11:32:10;;;;;;;561.53;524.33;;;;;;;;;;5034995;28;20403;-70
2023/04/17 11:34:36;;;;;;;468.20;438.60;;;13.80;19.10;;;;;;5036113;28;20781;-70
2023/04/17 11:37:02;;;;;;;358.10;333.53;;;;;;;;;;5034225;28;20457;-71
2023/04/17 11:39:32;;;;;;;469.40;438.27;;;13.60;18.30;;;;;;5035206;28;20463;-70
2023/04/17 11:41:58;;;;;;;401.40;374.60;;;13.30;18.00;;;;;;5034976;28;20422;-69
2023/04/17 11:44:24;;;;;;;445.73;416.57;;;13.50;17.80;;;;;;5035138;28;20506;-69
2023/04/17 11:46:54;;;;;;;501.67;470.77;;;14.00;17.70;;;;;;5035014;28;20437;-69
2023/04/17 11:49:37;;;;;;;362.67;339.20;;;14.20;16.70;;;;;;5035113;28;20751;-71
2023/04/17 11:52:04;;;;;;;503.43;470.73;;;14.30;17.00;;;;;;5035274;28;20406;-70
2023/04/17 11:54:34;;;;;;;444.50;417.13;;;14.00;16.80;;;;;;5035194;28;20415;-73
2023/04/17 11:57:01;;;;;;;422.37;395.80;;;13.10;19.20;;;;;;5035844;28;20444;-75
2023/04/17 11:59:36;;;;;;;560.30;516.60;;;12.80;22.30;;;;;;5035917;28;20918;-75
2023/04/17 12:02:02;;;;;;;425.03;398.50;;;12.30;24.20;;;;;;5035438;28;20926;-75
2023/04/17 12:04:28;;;;;;;635.00;586.47;;;12.20;25.10;;;;;;5035095;28;20451;-75
2023/04/17 12:06:54;;;;;;;319.40;296.43;;;12.10;24.00;;;;;;5034830;28;20523;-75
2023/04/17 12:09:20;;;;;;;249.90;230.93;;;12.10;25.90;;;;;;5035046;28;20501;-75
2023/04/17 12:11:46;;;;;;;206.30;189.33;;;12.20;25.60;;;;;;5035097;28;20175;-75
2023/04/17 12:14:12;;;;;;;326.20;303.17;;;12.20;25.40;;;;;;5034809;28;20925;-75
2023/04/17 12:16:37;;;;;;;523.40;489.47;;;12.10;27.40;;;;;;5034511;28;20199;-75
2023/04/17 12:19:03;;;;;;;435.50;406.90;;;12.20;25.90;;;;;;5034768;28;20180;-75
2023/04/17 12:21:28;;;;;;;531.27;498.50;;;12.20;24.50;;;;;;5033448;28;20183;-75
2023/04/17 12:23:54;;;;;;;397.67;371.50;;;12.40;25.20;;;;;;5034651;28;20191;-75
2023/04/17 12:26:20;;;;;;;486.43;453.73;;;13.00;25.80;;;;;;5034597;28;20190;-74
2023/04/17 12:28:45;;;;;;;298.53;277.80;;;13.80;22.80;;;;;;5034790;28;20171;-75
2023/04/17 12:31:11;;;;;;;566.60;529.60;;;14.50;18.50;;;;;;5035146;28;20207;-75
2023/04/17 12:33:37;;;;;;;422.07;394.23;;;14.70;14.70;;;;;;5034966;28;20222;-75
2023/04/17 12:36:03;;;;;;;358.50;333.33;;;15.00;15.60;;;;;;5034322;28;20261;-76
2023/04/17 12:38:29;;;;;;;562.90;525.80;;;14.90;16.00;;;;;;5034439;28;20641;-75
2023/04/17 12:40:55;;;;;;;352.67;329.77;;;14.20;17.00;;;;;;5033211;28;20421;-74
2023/04/17 12:43:20;;;;;;;613.13;573.37;;;13.90;19.50;;;;;;5034667;28;20410;-74
2023/04/17 12:45:46;;;;;;;322.97;299.77;;;13.60;20.40;;;;;;5033982;28;20722;-71
2023/04/17 12:48:13;;;;;;;259.80;241.63;;;13.70;20.90;;;;;;5034042;28;20206;-71
2023/04/17 12:50:41;;;;;;;479.60;446.77;;;13.80;20.10;;;;;;5033841;28;20179;-70
2023/04/17 12:53:08;;;;;;;328.80;305.83;;;;;;;;;;5032524;28;20414;-71
2023/04/17 12:55:37;;;;;;;516.53;481.27;;;13.60;19.90;;;;;;5030398;28;20455;-73
2023/04/17 12:58:10;;;;;;;681.80;629.37;;;13.20;21.80;;;;;;5029232;28;20436;-74
2023/04/17 13:00:36;;;;;;;491.27;459.73;;;;;;;;;;5028289;28;20516;-74
2023/04/17 13:03:01;;;;;;;525.00;489.33;;;13.10;20.50;;;;;;5030140;28;20425;-74
2023/04/17 13:05:28;;;;;;;440.77;412.77;;;13.30;19.30;;;;;;5029597;28;20487;-73
2023/04/17 13:07:54;;;;;;;485.13;454.07;;;13.70;20.60;;;;;;5029736;28;21300;-74
2023/04/17 13:10:20;;;;;;;147.63;134.97;;;14.10;17.10;;;;;;5030235;28;20414;-74
2023/04/17 13:12:46;;;;;;;453.63;425.13;;;14.30;17.10;;;;;;5029295;28;20440;-73
2023/04/17 13:15:14;;;;;;;246.37;229.17;;;14.40;15.20;;;;;;5028121;28;20203;-74
2023/04/17 13:17:41;;;;;;;528.67;495.63;;;14.90;14.80;;;;;;5029922;28;20265;-73
2023/04/17 13:20:07;;;;;;;314.37;293.83;;;15.20;13.30;;;;;;5029607;28;20580;-73
2023/04/17 13:22:33;;;;;;;523.33;490.27;;;15.70;13.60;;;;;;5028494;28;20624;-74
2023/04/17 13:24:59;;;;;;;636.37;588.07;;;16.00;12.20;;;;;;5029752;28;20466;-74
2023/04/17 13:27:24;;;;;;;648.33;602.53;;;15.30;10.80;;;;;;5029338;28;20191;-74